createdAt,value
2017-10-28T00:00:26.627Z,4.50
2017-10-28T00:02:54.536Z,4.62
2017-10-28T00:05:22.067Z,4.70
2017-10-28T00:07:49.605Z,4.45
2017-10-28T00:10:22.262Z,5.22
2017-10-28T00:12:50.565Z,4.57
2017-10-28T00:15:18.493Z,4.70
2017-10-28T00:17:46.021Z,4.53
2017-10-28T00:20:13.557Z,5.00
2017-10-28T00:22:41.136Z,4.47
2017-10-28T00:25:08.675Z,4.60
2017-10-28T00:27:36.884Z,4.97
2017-10-28T00:30:09.993Z,3.72
2017-10-28T00:32:44.398Z,4.10
2017-10-28T00:35:17.533Z,4.07
2017-10-28T00:37:45.893Z,4.05
2017-10-28T00:40:13.420Z,4.25
2017-10-28T00:42:40.951Z,3.45
2017-10-28T00:45:08.803Z,3.70
2017-10-28T00:47:37.269Z,4.37
2017-10-28T00:50:05.590Z,3.40
2017-10-28T00:52:33.161Z,3.17
2017-10-28T00:55:00.747Z,3.40
2017-10-28T00:57:28.274Z,3.67
2017-10-28T00:59:55.849Z,3.85
2017-10-28T01:02:23.375Z,3.37
2017-10-28T01:04:51.269Z,3.30
2017-10-28T01:07:18.798Z,3.15
2017-10-28T01:09:46.336Z,3.17
2017-10-28T01:12:14.814Z,3.60
2017-10-28T01:14:43.117Z,3.67
2017-10-28T01:17:10.695Z,3.40
2017-10-28T01:19:38.230Z,3.35
2017-10-28T01:22:05.801Z,3.30
2017-10-28T01:24:33.334Z,3.37
2017-10-28T01:27:02.313Z,3.55
2017-10-28T01:29:29.854Z,3.97
2017-10-28T01:31:57.546Z,4.00
2017-10-28T01:34:25.080Z,3.80
2017-10-28T01:36:52.653Z,4.22
2017-10-28T01:39:20.182Z,3.87
2017-10-28T01:41:47.753Z,3.90
2017-10-28T01:44:15.282Z,4.80
2017-10-28T01:46:42.863Z,4.78
2017-10-28T01:49:10.730Z,4.95
2017-10-28T01:51:38.305Z,5.20
2017-10-28T01:54:06.251Z,5.05
2017-10-28T01:56:33.782Z,6.10
2017-10-28T01:59:02.077Z,5.97
2017-10-28T02:01:29.654Z,5.05
2017-10-28T02:03:57.192Z,5.57
2017-10-28T02:06:27.792Z,5.97
2017-10-28T02:08:56.098Z,6.03
2017-10-28T02:11:23.631Z,5.93
2017-10-28T02:13:52.371Z,7.05
2017-10-28T02:16:19.905Z,6.93
2017-10-28T02:18:47.438Z,8.85
2017-10-28T02:21:15.781Z,9.23
2017-10-28T02:23:43.323Z,9.00
2017-10-28T02:26:10.962Z,8.93
2017-10-28T02:28:38.814Z,9.85
2017-10-28T02:31:07.159Z,9.65
2017-10-28T02:33:34.689Z,9.98
2017-10-28T02:36:02.412Z,8.68
2017-10-28T02:38:30.718Z,9.73
2017-10-28T02:40:58.260Z,10.10
2017-10-28T02:43:25.838Z,9.60
2017-10-28T02:45:53.382Z,9.57
2017-10-28T02:48:21.280Z,9.95
2017-10-28T02:50:49.587Z,10.35
2017-10-28T02:53:17.147Z,9.40
2017-10-28T02:55:44.731Z,9.40
2017-10-28T02:58:13.082Z,9.23
2017-10-28T03:00:40.667Z,9.52
2017-10-28T03:03:08.969Z,9.40
2017-10-28T03:05:36.945Z,10.50
2017-10-28T03:08:04.602Z,10.10
2017-10-28T03:10:32.146Z,10.23
2017-10-28T03:13:01.894Z,10.82
2017-10-28T03:15:29.442Z,10.63
2017-10-28T03:17:57.023Z,8.93
2017-10-28T03:20:24.894Z,9.48
2017-10-28T03:22:52.422Z,9.57
2017-10-28T03:25:20.279Z,8.45
2017-10-28T03:27:47.905Z,8.32
2017-10-28T03:30:15.442Z,8.90
2017-10-28T03:32:43.209Z,8.40
2017-10-28T03:35:11.175Z,9.20
2017-10-28T03:37:38.701Z,9.48
2017-10-28T03:40:06.233Z,9.25
2017-10-28T03:42:34.644Z,9.32
2017-10-28T03:45:02.180Z,9.20
2017-10-28T03:47:30.632Z,8.98
2017-10-28T03:49:58.173Z,8.75
2017-10-28T03:52:25.707Z,8.20
2017-10-28T03:54:56.878Z,8.88
2017-10-28T03:57:24.406Z,7.75
2017-10-28T03:59:51.934Z,8.45
2017-10-28T04:02:20.277Z,7.05
2017-10-28T04:04:48.241Z,8.90
2017-10-28T04:07:15.779Z,8.00
2017-10-28T04:09:43.317Z,8.23
2017-10-28T04:12:11.822Z,8.63
2017-10-28T04:14:39.405Z,7.90
2017-10-28T04:17:06.937Z,9.10
2017-10-28T04:19:34.781Z,9.25
2017-10-28T04:22:03.082Z,10.07
2017-10-28T04:24:30.618Z,9.40
2017-10-28T04:27:02.276Z,10.43
2017-10-28T04:29:30.576Z,10.68
2017-10-28T04:31:58.570Z,10.60
2017-10-28T04:34:26.108Z,11.98
2017-10-28T04:36:53.645Z,11.55
2017-10-28T04:39:22.377Z,11.68
2017-10-28T04:41:49.910Z,13.38
2017-10-28T04:44:17.462Z,13.27
2017-10-28T04:46:45.691Z,13.00
2017-10-28T04:49:13.247Z,12.85
2017-10-28T04:51:40.794Z,13.82
2017-10-28T04:54:08.660Z,13.57
2017-10-28T04:56:36.198Z,13.75
2017-10-28T04:59:03.734Z,12.00
2017-10-28T05:01:36.666Z,12.43
2017-10-28T05:04:04.203Z,11.60
2017-10-28T05:06:31.736Z,12.25
2017-10-28T05:08:59.313Z,11.63
2017-10-28T05:11:26.854Z,11.77
2017-10-28T05:13:55.202Z,11.52
2017-10-28T05:16:22.746Z,12.00
2017-10-28T05:18:50.710Z,12.10
2017-10-28T05:21:18.252Z,11.77
2017-10-28T05:23:45.785Z,11.50
2017-10-28T05:26:14.126Z,11.48
2017-10-28T05:28:41.937Z,12.20
2017-10-28T05:31:13.222Z,10.90
2017-10-28T05:33:40.759Z,11.35
2017-10-28T05:36:08.705Z,10.88
2017-10-28T05:38:37.281Z,11.30
2017-10-28T05:41:05.579Z,12.30
2017-10-28T05:43:33.437Z,12.20
2017-10-28T05:46:01.351Z,11.85
2017-10-28T05:48:28.886Z,10.93
2017-10-28T05:50:56.421Z,12.00
2017-10-28T05:53:25.245Z,12.37
2017-10-28T05:55:53.089Z,11.55
2017-10-28T05:58:20.625Z,12.00
2017-10-28T06:00:48.941Z,12.10
2017-10-28T06:03:16.930Z,11.00
2017-10-28T06:05:44.470Z,16.30
2017-10-28T06:08:12.006Z,12.57
2017-10-28T06:10:40.838Z,11.10
2017-10-28T06:13:08.379Z,12.10
2017-10-28T06:15:36.041Z,13.57
2017-10-28T06:18:03.585Z,13.00
2017-10-28T06:20:31.113Z,11.15
2017-10-28T06:22:59.457Z,11.85
2017-10-28T06:25:26.998Z,11.85
2017-10-28T06:27:54.594Z,10.75
2017-10-28T06:30:22.132Z,10.38
2017-10-28T06:32:49.902Z,11.80
2017-10-28T06:35:17.476Z,11.15
2017-10-28T06:37:45.058Z,28.33
2017-10-28T06:40:13.401Z,10.57
2017-10-28T06:42:41.571Z,10.82
2017-10-28T06:45:09.105Z,12.82
2017-10-28T06:47:36.654Z,12.65
2017-10-28T06:50:04.302Z,16.40
2017-10-28T06:52:32.929Z,14.40
2017-10-28T06:55:00.471Z,12.70
2017-10-28T06:57:28.010Z,13.23
2017-10-28T06:59:56.353Z,11.70
2017-10-28T07:02:23.885Z,11.32
2017-10-28T07:04:51.461Z,11.63
2017-10-28T07:07:19.086Z,11.48
2017-10-28T07:09:46.621Z,11.52
2017-10-28T07:12:15.121Z,11.02
2017-10-28T07:14:42.987Z,11.23
2017-10-28T07:17:10.762Z,11.55
2017-10-28T07:19:38.357Z,10.10
2017-10-28T07:22:05.954Z,11.00
2017-10-28T07:24:34.258Z,10.48
2017-10-28T07:27:01.978Z,11.10
2017-10-28T07:29:29.614Z,11.45
2017-10-28T07:31:57.230Z,11.23
2017-10-28T07:34:25.639Z,11.95
2017-10-28T07:36:53.236Z,12.82
2017-10-28T07:39:20.954Z,13.35
2017-10-28T07:41:54.433Z,11.27
2017-10-28T07:44:23.370Z,11.90
2017-10-28T07:46:50.912Z,11.45
2017-10-28T07:49:18.449Z,11.30
2017-10-28T07:51:46.031Z,16.75
2017-10-28T07:54:13.617Z,23.38
2017-10-28T07:56:41.154Z,14.87
2017-10-28T07:59:10.786Z,13.50
2017-10-28T08:01:38.324Z,15.07
2017-10-28T08:04:12.072Z,15.40
2017-10-28T08:06:40.416Z,38.33
2017-10-28T08:09:07.966Z,22.25
2017-10-28T08:11:35.573Z,28.55
2017-10-28T08:14:03.147Z,72.37
2017-10-28T08:16:31.453Z,14.93
2017-10-28T08:18:59.093Z,22.42
2017-10-28T08:21:27.860Z,16.27
2017-10-28T08:23:55.406Z,22.02
2017-10-28T08:26:23.218Z,16.02
2017-10-28T08:28:50.799Z,17.17
2017-10-28T08:31:18.340Z,27.08
2017-10-28T08:33:46.078Z,24.95
2017-10-28T08:36:14.385Z,15.25
2017-10-28T08:38:42.018Z,18.25
2017-10-28T08:41:10.327Z,29.75
2017-10-28T08:43:37.970Z,15.30
2017-10-28T08:46:06.313Z,18.85
2017-10-28T08:48:33.905Z,15.13
2017-10-28T08:51:02.201Z,18.20
2017-10-28T08:53:29.757Z,14.05
2017-10-28T08:55:57.399Z,15.30
2017-10-28T08:58:25.697Z,19.90
2017-10-28T09:00:53.283Z,14.48
2017-10-28T09:03:20.838Z,19.45
2017-10-28T09:05:48.418Z,15.55
2017-10-28T09:08:15.962Z,16.20
2017-10-28T09:10:43.553Z,20.12
2017-10-28T09:13:11.119Z,14.50
2017-10-28T09:15:38.852Z,15.10
2017-10-28T09:18:06.393Z,16.20
2017-10-28T09:20:33.969Z,14.52
2017-10-28T09:23:01.557Z,18.95
2017-10-28T09:25:29.115Z,15.05
2017-10-28T09:27:56.773Z,13.90
2017-10-28T09:30:24.318Z,14.60
2017-10-28T09:32:52.089Z,13.60
2017-10-28T09:35:19.631Z,13.05
2017-10-28T09:37:47.540Z,13.65
2017-10-28T09:40:15.085Z,13.60
2017-10-28T09:42:42.638Z,13.00
2017-10-28T09:45:10.223Z,12.77
2017-10-28T09:47:37.925Z,13.05
2017-10-28T09:50:05.529Z,13.10
2017-10-28T09:52:33.076Z,12.95
2017-10-28T09:55:00.662Z,13.00
2017-10-28T09:57:28.203Z,13.07
2017-10-28T09:59:55.850Z,13.05
2017-10-28T10:02:23.430Z,15.43
2017-10-28T10:04:50.969Z,13.43
2017-10-28T10:07:18.549Z,13.43
2017-10-28T10:09:47.673Z,14.98
2017-10-28T10:12:15.987Z,13.95
2017-10-28T10:14:43.531Z,15.85
2017-10-28T10:17:11.238Z,14.25
2017-10-28T10:19:38.823Z,19.10
2017-10-28T10:22:06.362Z,14.60
2017-10-28T10:24:34.062Z,15.23
2017-10-28T10:27:02.693Z,16.33
2017-10-28T10:29:30.234Z,13.93
2017-10-28T10:31:57.855Z,13.60
2017-10-28T10:34:26.174Z,14.45
2017-10-28T10:36:53.717Z,13.90
2017-10-28T10:39:22.473Z,13.35
2017-10-28T10:41:50.258Z,13.27
2017-10-28T10:44:18.578Z,12.88
2017-10-28T10:46:46.205Z,12.55
2017-10-28T10:49:14.521Z,12.80
2017-10-28T10:51:42.109Z,12.70
2017-10-28T10:54:09.710Z,13.50
2017-10-28T10:56:38.017Z,13.27
2017-10-28T10:59:05.770Z,12.05
2017-10-28T11:01:33.314Z,12.32
2017-10-28T11:04:01.667Z,11.77
2017-10-28T11:06:29.202Z,12.63
2017-10-28T11:08:56.785Z,12.70
2017-10-28T11:11:24.326Z,12.90
2017-10-28T11:13:51.918Z,12.57
2017-10-28T11:16:20.222Z,37.47
2017-10-28T11:18:47.954Z,13.30
2017-10-28T11:21:16.249Z,29.42
2017-10-28T11:23:44.881Z,14.10
2017-10-28T11:26:12.427Z,12.93
2017-10-28T11:28:39.966Z,14.73
2017-10-28T11:31:07.555Z,15.48
2017-10-28T11:33:35.089Z,13.25
2017-10-28T11:36:02.664Z,19.12
2017-10-28T11:38:30.237Z,18.30
2017-10-28T11:40:58.441Z,24.58
2017-10-28T11:43:25.977Z,14.82
2017-10-28T11:45:53.685Z,36.08
2017-10-28T11:48:22.417Z,18.45
2017-10-28T11:50:49.955Z,22.20
2017-10-28T11:53:18.269Z,25.80
2017-10-28T11:55:45.866Z,14.70
2017-10-28T11:58:13.446Z,15.27
2017-10-28T12:00:41.028Z,24.45
2017-10-28T12:03:08.583Z,13.30
2017-10-28T12:05:36.581Z,13.65
2017-10-28T12:08:04.237Z,14.13
2017-10-28T12:10:32.141Z,13.82
2017-10-28T12:13:00.945Z,13.40
2017-10-28T12:15:29.275Z,15.32
2017-10-28T12:17:56.819Z,12.80
2017-10-28T12:20:24.436Z,13.10
2017-10-28T12:22:52.751Z,13.68
2017-10-28T12:25:20.305Z,13.45
2017-10-28T12:27:48.306Z,12.48
2017-10-28T12:30:15.854Z,12.13
2017-10-28T12:32:43.398Z,11.68
2017-10-28T12:35:11.489Z,11.80
2017-10-28T12:37:39.025Z,12.82
2017-10-28T12:40:06.576Z,13.57
2017-10-28T12:42:34.327Z,12.85
2017-10-28T12:45:02.718Z,12.65
2017-10-28T12:47:30.259Z,13.10
2017-10-28T12:49:58.568Z,12.75
2017-10-28T12:52:26.165Z,12.25
2017-10-28T12:54:54.126Z,11.63
2017-10-28T12:57:21.665Z,11.75
2017-10-28T12:59:49.206Z,11.93
2017-10-28T13:02:16.786Z,13.62
2017-10-28T13:04:44.327Z,15.00
2017-10-28T13:07:12.009Z,13.20
2017-10-28T13:09:39.554Z,12.52
2017-10-28T13:12:07.145Z,12.90
2017-10-28T13:14:34.673Z,14.38
2017-10-28T13:17:02.252Z,16.48
2017-10-28T13:19:29.825Z,15.00
2017-10-28T13:21:57.405Z,12.77
2017-10-28T13:24:24.941Z,13.40
2017-10-28T13:26:54.005Z,14.70
2017-10-28T13:29:21.542Z,14.18
2017-10-28T13:31:49.086Z,16.48
2017-10-28T13:34:17.085Z,18.25
2017-10-28T13:36:44.641Z,15.57
2017-10-28T13:39:12.188Z,15.80
2017-10-28T13:41:39.769Z,17.15
2017-10-28T13:44:07.357Z,17.48
2017-10-28T13:46:35.671Z,20.50
2017-10-28T13:49:03.523Z,16.33
2017-10-28T13:51:31.122Z,17.92
2017-10-28T13:53:58.711Z,17.35
2017-10-28T13:56:26.250Z,16.58
2017-10-28T13:58:53.833Z,17.73
2017-10-28T14:01:21.394Z,16.50
2017-10-28T14:03:49.212Z,48.40
2017-10-28T14:06:16.754Z,24.73
2017-10-28T14:08:44.658Z,17.80
2017-10-28T14:11:12.198Z,28.52
2017-10-28T14:13:39.738Z,19.10
2017-10-28T14:16:11.034Z,19.48
2017-10-28T14:18:38.717Z,21.23
2017-10-28T14:21:06.302Z,19.40
2017-10-28T14:23:34.714Z,30.45
2017-10-28T14:26:02.809Z,50.33
2017-10-28T14:28:30.496Z,23.73
2017-10-28T14:30:58.034Z,30.25
2017-10-28T14:33:25.877Z,26.02
2017-10-28T14:35:53.420Z,25.90
2017-10-28T14:38:21.024Z,19.27
2017-10-28T14:40:50.315Z,18.23
2017-10-28T14:43:17.854Z,25.77
2017-10-28T14:45:45.421Z,20.10
2017-10-28T14:48:13.022Z,20.45
2017-10-28T14:50:40.573Z,18.90
2017-10-28T14:53:08.161Z,21.37
2017-10-28T14:55:36.457Z,22.35
2017-10-28T14:58:04.090Z,20.45
2017-10-28T15:00:32.444Z,19.15
2017-10-28T15:03:00.502Z,19.30
2017-10-28T15:05:28.042Z,19.75
2017-10-28T15:07:55.582Z,18.50
2017-10-28T15:10:23.165Z,18.20
2017-10-28T15:12:50.758Z,19.62
2017-10-28T15:15:18.334Z,24.23
2017-10-28T15:17:46.745Z,21.08
2017-10-28T15:20:14.762Z,20.20
2017-10-28T15:22:42.316Z,20.73
2017-10-28T15:25:09.856Z,19.80
2017-10-28T15:27:37.945Z,19.98
2017-10-28T15:30:05.634Z,19.33
2017-10-28T15:32:33.230Z,18.95
2017-10-28T15:35:00.815Z,18.17
2017-10-28T15:37:28.397Z,18.65
2017-10-28T15:39:55.933Z,18.67
2017-10-28T15:42:23.573Z,18.50
2017-10-28T15:44:51.118Z,19.27
2017-10-28T15:47:19.862Z,18.58
2017-10-28T15:49:47.419Z,18.30
2017-10-28T15:52:15.044Z,17.85
2017-10-28T15:54:42.669Z,17.17
2017-10-28T15:57:11.633Z,18.00
2017-10-28T15:59:39.177Z,19.25
2017-10-28T16:02:06.921Z,19.20
2017-10-28T16:04:38.619Z,18.75
2017-10-28T16:07:06.158Z,19.73
2017-10-28T16:09:33.702Z,18.73
2017-10-28T16:12:01.292Z,18.80
2017-10-28T16:14:28.873Z,19.90
2017-10-28T16:16:56.417Z,21.50
2017-10-28T16:19:24.136Z,20.15
2017-10-28T16:21:51.678Z,21.75
2017-10-28T16:24:20.026Z,20.83
2017-10-28T16:26:47.570Z,21.80
2017-10-28T16:29:15.889Z,22.83
2017-10-28T16:31:44.214Z,22.45
2017-10-28T16:34:11.750Z,20.65
2017-10-28T16:36:39.334Z,22.10
2017-10-28T16:39:06.918Z,22.87
2017-10-28T16:41:34.546Z,22.08
2017-10-28T16:44:02.142Z,24.37
2017-10-28T16:46:29.985Z,23.83
2017-10-28T16:48:57.527Z,21.00
2017-10-28T16:51:25.071Z,21.15
2017-10-28T16:53:53.424Z,22.70
2017-10-28T16:56:20.975Z,21.80
2017-10-28T16:58:48.558Z,22.70
2017-10-28T17:01:16.905Z,19.08
2017-10-28T17:03:44.494Z,21.20
2017-10-28T17:06:12.993Z,20.30
2017-10-28T17:08:40.572Z,20.23
2017-10-28T17:11:08.111Z,21.27
2017-10-28T17:13:36.486Z,19.52
2017-10-28T17:16:04.790Z,20.75
2017-10-28T17:18:32.378Z,19.95
2017-10-28T17:20:59.922Z,21.12
2017-10-28T17:23:27.461Z,21.37
2017-10-28T17:25:56.603Z,21.60
2017-10-28T17:28:24.155Z,23.52
2017-10-28T17:30:51.692Z,22.80
2017-10-28T17:33:19.655Z,21.60
2017-10-28T17:35:47.202Z,22.60
2017-10-28T17:38:14.743Z,24.35
2017-10-28T17:40:43.386Z,23.52
2017-10-28T17:43:11.050Z,26.55
2017-10-28T17:45:38.636Z,29.67
2017-10-28T17:48:06.220Z,28.15
2017-10-28T17:50:33.806Z,27.20
2017-10-28T17:53:01.382Z,25.52
2017-10-28T17:55:29.361Z,28.35
2017-10-28T17:57:56.904Z,25.90
2017-10-28T18:00:24.450Z,26.67
2017-10-28T18:02:52.367Z,25.58
2017-10-28T18:05:19.911Z,26.20
2017-10-28T18:07:47.451Z,27.10
2017-10-28T18:10:15.190Z,25.90
2017-10-28T18:12:42.788Z,25.83
2017-10-28T18:15:10.325Z,28.23
2017-10-28T18:17:37.905Z,26.80
2017-10-28T18:20:05.446Z,27.33
2017-10-28T18:22:33.058Z,26.73
2017-10-28T18:25:00.601Z,25.70
2017-10-28T18:27:28.151Z,25.70
2017-10-28T18:29:55.837Z,26.20
2017-10-28T18:32:23.390Z,27.27
2017-10-28T18:34:51.002Z,26.05
2017-10-28T18:37:18.562Z,25.60
2017-10-28T18:39:46.150Z,25.08
2017-10-28T18:42:15.609Z,24.73
2017-10-28T18:44:43.914Z,25.35
2017-10-28T18:47:11.460Z,22.77
2017-10-28T18:49:40.286Z,24.33
2017-10-28T18:52:07.831Z,21.20
2017-10-28T18:54:35.413Z,22.65
2017-10-28T18:57:02.997Z,20.67
2017-10-28T18:59:30.537Z,22.52
2017-10-28T19:01:58.078Z,22.35
2017-10-28T19:04:26.425Z,20.50
2017-10-28T19:06:53.961Z,22.27
2017-10-28T19:09:22.310Z,21.55
2017-10-28T19:11:49.894Z,20.95
2017-10-28T19:14:17.478Z,23.12
2017-10-28T19:16:45.784Z,23.23
2017-10-28T19:19:13.522Z,22.98
2017-10-28T19:21:41.834Z,22.55
2017-10-28T19:24:10.185Z,23.40
2017-10-28T19:26:37.725Z,23.23
2017-10-28T19:29:06.371Z,24.15
2017-10-28T19:31:33.953Z,24.75
2017-10-28T19:34:03.228Z,27.60
2017-10-28T19:36:30.772Z,26.48
2017-10-28T19:38:58.324Z,25.50
2017-10-28T19:41:25.970Z,27.05
2017-10-28T19:43:53.519Z,29.10
2017-10-28T19:46:21.890Z,28.42
2017-10-28T19:48:50.194Z,56.13
2017-10-28T19:51:17.733Z,30.90
2017-10-28T19:53:46.089Z,33.80
2017-10-28T19:56:13.673Z,31.05
2017-10-28T19:58:41.977Z,30.88
2017-10-28T20:01:10.329Z,28.52
2017-10-28T20:03:37.873Z,29.12
2017-10-28T20:06:05.461Z,29.10
2017-10-28T20:08:33.007Z,27.95
2017-10-28T20:11:02.766Z,29.75
2017-10-28T20:13:30.335Z,28.45
2017-10-28T20:15:57.898Z,30.27
2017-10-28T20:18:25.489Z,27.48
2017-10-28T20:20:53.806Z,31.15
2017-10-28T20:23:21.394Z,29.45
2017-10-28T20:25:48.937Z,29.15
2017-10-28T20:28:16.642Z,29.48
2017-10-28T20:30:44.181Z,30.35
2017-10-28T20:33:11.771Z,31.20
2017-10-28T20:35:40.083Z,32.95
2017-10-28T20:38:07.685Z,33.55
2017-10-28T20:40:35.224Z,32.70
2017-10-28T20:43:03.021Z,33.38
2017-10-28T20:45:30.605Z,33.50
2017-10-28T20:47:58.909Z,33.83
2017-10-28T20:50:26.799Z,32.40
2017-10-28T20:52:54.338Z,36.88
2017-10-28T20:55:21.878Z,34.33
2017-10-28T20:57:50.305Z,35.47
2017-10-28T21:00:17.858Z,34.83
2017-10-28T21:02:45.447Z,35.00
2017-10-28T21:05:12.980Z,35.67
2017-10-28T21:07:40.571Z,34.67
2017-10-28T21:10:08.109Z,33.10
2017-10-28T21:12:35.840Z,33.45
2017-10-28T21:15:03.381Z,32.97
2017-10-28T21:17:31.730Z,34.58
2017-10-28T21:19:59.277Z,32.47
2017-10-28T21:22:26.867Z,30.35
2017-10-28T21:24:55.258Z,31.70
2017-10-28T21:27:23.151Z,31.00
2017-10-28T21:29:50.694Z,31.20
2017-10-28T21:32:18.277Z,29.20
2017-10-28T21:34:45.822Z,29.80
2017-10-28T21:37:13.419Z,31.25
2017-10-28T21:39:40.963Z,31.25
2017-10-28T21:42:08.505Z,31.05
2017-10-28T21:44:36.654Z,32.88
2017-10-28T21:47:04.968Z,30.80
2017-10-28T21:49:32.514Z,30.83
2017-10-28T21:52:00.110Z,30.17
2017-10-28T21:54:28.857Z,30.27
2017-10-28T21:56:56.402Z,30.08
2017-10-28T21:59:24.714Z,29.65
2017-10-28T22:01:52.305Z,28.65
2017-10-28T22:04:19.855Z,28.50
2017-10-28T22:06:47.821Z,29.23
2017-10-28T22:09:15.360Z,29.35
2017-10-28T22:11:42.902Z,30.17
2017-10-28T22:14:10.636Z,28.58
2017-10-28T22:16:38.967Z,29.05
2017-10-28T22:19:07.868Z,26.98
2017-10-28T22:21:35.410Z,28.12
2017-10-28T22:24:03.002Z,29.20
2017-10-28T22:26:30.553Z,28.30
2017-10-28T22:28:58.377Z,29.75
2017-10-28T22:31:25.958Z,28.90
2017-10-28T22:33:53.589Z,30.55
2017-10-28T22:36:21.893Z,28.70
2017-10-28T22:38:49.486Z,30.98
2017-10-28T22:41:17.836Z,33.50
2017-10-28T22:43:45.382Z,33.60
2017-10-28T22:46:13.164Z,33.25
2017-10-28T22:48:40.714Z,32.17
2017-10-28T22:51:09.593Z,34.95
2017-10-28T22:53:37.143Z,34.10
2017-10-28T22:56:05.877Z,35.97
2017-10-28T22:58:33.426Z,38.33
2017-10-28T23:01:00.971Z,35.15
2017-10-28T23:03:28.574Z,37.13
2017-10-28T23:05:56.129Z,37.40
2017-10-28T23:08:23.674Z,36.92
2017-10-28T23:10:51.410Z,38.67
2017-10-28T23:13:18.954Z,36.50
2017-10-28T23:15:47.314Z,38.95
2017-10-28T23:18:14.854Z,36.70
2017-10-28T23:20:42.441Z,39.17
2017-10-28T23:23:10.791Z,38.50
2017-10-28T23:25:38.337Z,36.83
2017-10-28T23:28:06.514Z,37.13
2017-10-28T23:30:34.054Z,39.05
2017-10-28T23:33:01.597Z,40.03
2017-10-28T23:35:29.184Z,36.35
2017-10-28T23:37:56.730Z,37.08
2017-10-28T23:40:26.775Z,35.63
2017-10-28T23:42:54.371Z,37.35
2017-10-28T23:45:22.723Z,35.58
2017-10-28T23:47:50.263Z,35.95
2017-10-28T23:50:17.880Z,32.72
2017-10-28T23:52:46.198Z,33.08
2017-10-28T23:55:13.787Z,32.47
2017-10-28T23:57:41.333Z,31.98
